Time;durP1;ratioP1;P1;durP2;ratioP2;P2;SDS_P1;SDS_P2;PMS_P1;PMS_P2;Temp;Humidity;BMP_temperature;BMP_pressure;BME280_temperature;BME280_humidity;BME280_pressure;Samples;Min_cycle;Max_cycle;Signal;HPM_P1;HPM_P2
2020/12/14 00:00:42;;;;;;;6.72;2.20;;;22.10;57.30;;;;;;5086903;28;20114;-73
2020/12/14 00:03:48;;;;;;;6.38;1.58;;;22.10;57.30;;;;;;5086220;28;20489;-72
2020/12/14 00:06:54;;;;;;;3.28;1.15;;;22.10;57.40;;;;;;5083087;28;20024;-72
2020/12/14 00:10:01;;;;;;;8.70;1.65;;;22.00;57.40;;;;;;5080604;28;20021;-72
2020/12/14 00:13:07;;;;;;;5.57;1.42;;;22.00;57.50;;;;;;5086554;28;20111;-73
2020/12/14 00:16:13;;;;;;;7.70;1.45;;;22.00;57.60;;;;;;5086382;28;20535;-72
2020/12/14 00:19:19;;;;;;;4.68;1.42;;;22.00;57.80;;;;;;5082799;28;20060;-73
2020/12/14 00:22:25;;;;;;;7.22;2.05;;;22.00;57.90;;;;;;5084668;28;20029;-73
2020/12/14 00:25:31;;;;;;;5.35;1.70;;;22.00;58.00;;;;;;5080468;28;20020;-72
2020/12/14 00:28:37;;;;;;;6.55;2.10;;;22.00;58.10;;;;;;5083017;28;20020;-72
2020/12/14 00:31:43;;;;;;;3.47;1.33;;;21.90;58.10;;;;;;5083594;28;20115;-72
2020/12/14 00:34:49;;;;;;;8.13;1.95;;;21.90;58.20;;;;;;5084327;28;20387;-72
2020/12/14 00:37:56;;;;;;;4.43;1.65;;;21.90;58.30;;;;;;5084835;28;20099;-72
2020/12/14 00:41:02;;;;;;;8.85;1.83;;;21.90;58.30;;;;;;5083152;28;20486;-72
2020/12/14 00:44:08;;;;;;;6.25;1.38;;;21.90;58.40;;;;;;5080301;28;20391;-72
2020/12/14 00:47:14;;;;;;;4.15;1.60;;;21.90;58.40;;;;;;5084125;28;20060;-72
2020/12/14 00:50:20;;;;;;;6.72;1.98;;;21.80;58.40;;;;;;5082702;28;20035;-72
2020/12/14 00:53:26;;;;;;;5.85;1.30;;;21.80;58.40;;;;;;5084663;28;20043;-72
2020/12/14 00:56:32;;;;;;;5.38;1.98;;;21.90;58.60;;;;;;5082563;28;20597;-72
2020/12/14 00:59:38;;;;;;;3.30;1.45;;;21.80;58.50;;;;;;5084181;28;20027;-71
2020/12/14 01:02:44;;;;;;;4.00;1.65;;;21.80;58.50;;;;;;5078460;28;20035;-72
2020/12/14 01:05:50;;;;;;;5.88;1.00;;;21.80;58.60;;;;;;5085986;28;20061;-72
2020/12/14 01:08:56;;;;;;;4.35;2.20;;;21.80;58.60;;;;;;5081852;28;20081;-73
2020/12/14 01:12:05;;;;;;;7.60;1.60;;;21.70;58.50;;;;;;5080294;28;20046;-72
2020/12/14 01:15:11;;;;;;;6.15;2.63;;;21.80;58.60;;;;;;5084927;28;20487;-72
2020/12/14 01:18:17;;;;;;;5.90;1.50;;;21.70;58.60;;;;;;5083060;28;20024;-72
2020/12/14 01:21:26;;;;;;;8.25;2.35;;;21.70;58.60;;;;;;5078980;28;20039;-71
2020/12/14 01:24:32;;;;;;;6.25;1.52;;;21.70;58.70;;;;;;5086220;28;20063;-72
2020/12/14 01:27:38;;;;;;;7.05;1.60;;;21.70;58.70;;;;;;5086405;28;20024;-71
2020/12/14 01:30:44;;;;;;;8.70;1.35;;;21.60;58.70;;;;;;5084445;28;20044;-72
2020/12/14 01:33:53;;;;;;;4.82;1.40;;;21.60;58.70;;;;;;5079979;28;20444;-73
2020/12/14 01:36:59;;;;;;;4.68;1.30;;;21.70;58.80;;;;;;5080204;28;20031;-72
2020/12/14 01:40:05;;;;;;;9.75;1.83;;;21.60;58.80;;;;;;5078574;28;20031;-72
2020/12/14 01:43:12;;;;;;;3.67;1.67;;;21.60;58.80;;;;;;5079576;28;20047;-72
2020/12/14 01:46:18;;;;;;;4.97;1.83;;;21.60;58.80;;;;;;5080798;28;20034;-72
2020/12/14 01:49:24;;;;;;;3.50;1.60;;;21.60;58.80;;;;;;5082837;28;20028;-72
2020/12/14 01:52:30;;;;;;;7.07;1.63;;;21.60;58.80;;;;;;5083671;28;20029;-72
2020/12/14 01:55:36;;;;;;;4.35;1.40;;;21.60;58.80;;;;;;5085172;28;20024;-72
2020/12/14 01:58:42;;;;;;;2.95;1.48;;;21.50;58.80;;;;;;5084461;28;20111;-72
2020/12/14 02:01:48;;;;;;;5.35;1.45;;;21.50;58.80;;;;;;5081031;28;20049;-71
2020/12/14 02:04:54;;;;;;;11.75;2.60;;;21.50;58.80;;;;;;5076655;28;20079;-72
2020/12/14 02:08:00;;;;;;;8.45;4.85;;;21.50;58.90;;;;;;5080299;28;20024;-71
2020/12/14 02:11:06;;;;;;;9.90;3.38;;;21.50;58.90;;;;;;5084524;28;20834;-72
2020/12/14 02:14:13;;;;;;;8.32;3.45;;;21.50;58.90;;;;;;5087811;28;20046;-72
2020/12/14 02:17:19;;;;;;;4.63;1.42;;;21.50;59.00;;;;;;5085595;28;20047;-72
2020/12/14 02:20:25;;;;;;;6.82;2.38;;;21.50;59.00;;;;;;5082330;28;20375;-71
2020/12/14 02:23:31;;;;;;;6.00;1.50;;;21.50;59.10;;;;;;5082897;28;20031;-71
2020/12/14 02:26:37;;;;;;;2.47;1.48;;;21.50;59.00;;;;;;5083188;28;20532;-71
2020/12/14 02:29:43;;;;;;;6.75;4.63;;;21.40;59.00;;;;;;5079886;28;20020;-72
2020/12/14 02:32:49;;;;;;;10.07;5.78;;;21.40;59.00;;;;;;5084856;28;20032;-73
2020/12/14 02:35:55;;;;;;;3.47;2.95;;;21.40;59.10;;;;;;5081018;28;20024;-73
2020/12/14 02:39:01;;;;;;;7.65;2.50;;;21.30;59.00;;;;;;5081876;28;20367;-72
2020/12/14 02:42:07;;;;;;;4.75;1.90;;;21.40;59.10;;;;;;5083464;28;20559;-72
2020/12/14 02:45:13;;;;;;;7.25;1.92;;;21.40;59.20;;;;;;5085066;28;20021;-72
2020/12/14 02:48:19;;;;;;;6.10;1.55;;;21.30;59.10;;;;;;5085214;28;20490;-71
2020/12/14 02:51:25;;;;;;;4.00;1.05;;;21.30;59.20;;;;;;5080268;28;20031;-74
2020/12/14 02:54:32;;;;;;;9.73;5.57;;;21.30;59.20;;;;;;5082350;28;20099;-74
2020/12/14 02:57:38;;;;;;;9.52;7.35;;;21.30;59.20;;;;;;5085382;28;20095;-72
2020/12/14 03:00:46;;;;;;;10.70;5.40;;;21.30;59.30;;;;;;5085252;28;20048;-73
2020/12/14 03:03:52;;;;;;;7.10;3.30;;;21.30;59.40;;;;;;5085098;28;20540;-71
2020/12/14 03:06:58;;;;;;;6.38;2.40;;;21.30;59.40;;;;;;5084015;28;20103;-72
2020/12/14 03:10:05;;;;;;;3.78;1.63;;;21.30;59.40;;;;;;5084129;28;20478;-72
2020/12/14 03:12:34;;;;;;;;;;;21.30;59.40;;;;;;5081986;28;20111;-71
2020/12/14 03:15:01;;;;;;;5.55;1.90;;;21.20;59.40;;;;;;5083739;28;20384;-71
2020/12/14 03:17:27;;;;;;;7.00;2.67;;;21.20;59.30;;;;;;5081673;28;20510;-71
2020/12/14 03:19:54;;;;;;;5.20;2.03;;;21.20;59.40;;;;;;5083081;28;20095;-71
2020/12/14 03:22:21;;;;;;;5.20;1.80;;;21.20;59.30;;;;;;5085884;28;20032;-72
2020/12/14 03:24:48;;;;;;;3.10;1.25;;;21.20;59.30;;;;;;5087241;28;20095;-72
2020/12/14 03:27:14;;;;;;;7.78;1.90;;;21.20;59.30;;;;;;5085061;28;20127;-72
2020/12/14 03:29:41;;;;;;;3.40;1.15;;;21.20;59.30;;;;;;5078839;28;20016;-71
2020/12/14 03:32:07;;;;;;;5.90;1.88;;;21.20;59.30;;;;;;5089114;28;20028;-71
2020/12/14 03:34:34;;;;;;;9.57;3.63;;;21.20;59.40;;;;;;5086391;28;20103;-71
2020/12/14 03:37:00;;;;;;;11.50;9.30;;;21.20;59.50;;;;;;5083971;28;20031;-71
2020/12/14 03:39:27;;;;;;;9.80;7.13;;;21.20;59.50;;;;;;5085830;28;20076;-72
2020/12/14 03:41:53;;;;;;;9.55;7.70;;;21.10;59.50;;;;;;5085971;28;20043;-73
2020/12/14 03:44:20;;;;;;;6.63;4.10;;;21.20;59.70;;;;;;5082795;28;20020;-72
2020/12/14 03:46:46;;;;;;;6.43;2.88;;;21.10;59.70;;;;;;5083959;28;20039;-72
2020/12/14 03:49:13;;;;;;;4.82;2.55;;;21.10;59.80;;;;;;5087124;28;20028;-71
2020/12/14 03:51:39;;;;;;;7.45;1.77;;;21.10;59.80;;;;;;5081781;28;20024;-73
2020/12/14 03:54:06;;;;;;;5.25;1.70;;;21.10;59.90;;;;;;5086416;28;20082;-71
2020/12/14 03:56:32;;;;;;;9.55;2.35;;;21.10;59.90;;;;;;5089918;28;20029;-71
2020/12/14 03:59:00;;;;;;;8.48;1.63;;;21.10;60.00;;;;;;5086645;28;20012;-71
2020/12/14 04:01:28;;;;;;;15.73;2.15;;;21.10;60.00;;;;;;5088550;28;20432;-73
2020/12/14 04:03:55;;;;;;;6.20;1.42;;;21.10;60.80;;;;;;5085510;28;20035;-70
2020/12/14 04:06:26;;;;;;;8.63;2.05;;;21.10;60.10;;;;;;5081283;28;20037;-71
2020/12/14 04:08:54;;;;;;;7.82;4.40;;;21.10;60.20;;;;;;5088560;28;20483;-72
2020/12/14 04:11:21;;;;;;;13.05;6.32;;;21.10;60.30;;;;;;5085905;28;20103;-73
2020/12/14 04:13:48;;;;;;;18.55;5.15;;;21.10;60.30;;;;;;5085425;28;20029;-72
2020/12/14 04:16:15;;;;;;;4.97;3.10;;;21.10;60.30;;;;;;5085435;28;20028;-72
2020/12/14 04:18:42;;;;;;;8.23;2.97;;;21.10;60.30;;;;;;5083594;28;20051;-73
2020/12/14 04:21:08;;;;;;;13.15;2.42;;;21.10;60.40;;;;;;5085890;28;20050;-70
2020/12/14 04:23:37;;;;;;;7.80;3.72;;;21.10;60.40;;;;;;5087298;28;20016;-70
2020/12/14 04:26:04;;;;;;;9.38;6.63;;;21.10;60.40;;;;;;5085633;28;20487;-69
2020/12/14 04:28:31;;;;;;;8.98;6.38;;;21.10;60.50;;;;;;5082762;28;20033;-70
2020/12/14 04:30:59;;;;;;;6.63;4.13;;;21.10;60.50;;;;;;5086591;28;20050;-70
2020/12/14 04:33:25;;;;;;;10.52;3.85;;;21.10;60.60;;;;;;5083623;28;20564;-70
2020/12/14 04:35:52;;;;;;;6.68;4.18;;;21.20;60.80;;;;;;5084280;28;20028;-70
2020/12/14 04:38:18;;;;;;;9.57;3.70;;;21.20;60.80;;;;;;5082559;28;20043;-69
2020/12/14 04:40:45;;;;;;;6.28;2.92;;;21.20;60.90;;;;;;5083571;28;20040;-73
2020/12/14 04:43:14;;;;;;;7.45;3.20;;;21.20;60.90;;;;;;5085154;28;20127;-72
2020/12/14 04:45:43;;;;;;;8.15;2.85;;;21.20;60.90;;;;;;5087307;28;20021;-72
2020/12/14 04:48:10;;;;;;;4.80;1.88;;;21.20;60.90;;;;;;5085483;28;20028;-71
2020/12/14 04:50:39;;;;;;;4.97;1.73;;;21.20;60.90;;;;;;5082373;28;20066;-71
2020/12/14 04:53:06;;;;;;;2.97;1.40;;;21.20;60.90;;;;;;5082989;28;20096;-71
2020/12/14 04:55:38;;;;;;;4.63;1.20;;;21.20;60.90;;;;;;5088135;28;20012;-73
2020/12/14 04:58:06;;;;;;;4.88;2.42;;;21.20;60.80;;;;;;5085572;28;20033;-71
2020/12/14 05:00:36;;;;;;;2.97;1.40;;;21.20;60.70;;;;;;5081757;28;20036;-71
2020/12/14 05:03:03;;;;;;;5.80;1.88;;;21.30;60.60;;;;;;5086746;28;20030;-72
2020/12/14 05:05:30;;;;;;;7.32;2.00;;;21.30;60.60;;;;;;5086314;28;20055;-71
2020/12/14 05:07:56;;;;;;;4.85;2.08;;;21.30;60.40;;;;;;5087417;28;20025;-71
2020/12/14 05:11:05;;;;;;;6.55;2.25;;;21.30;60.40;;;;;;5086553;28;20494;-73
2020/12/14 05:14:11;;;;;;;5.63;1.40;;;21.30;60.50;;;;;;5079248;28;20021;-71
2020/12/14 05:17:21;;;;;;;7.35;2.40;;;21.30;60.40;;;;;;5079064;28;20051;-72
2020/12/14 05:20:34;;;;;;;18.45;12.40;;;21.40;60.40;;;;;;5074641;28;20043;-71
2020/12/14 05:23:40;;;;;;;17.63;13.32;;;21.40;60.50;;;;;;5078680;28;20035;-73
2020/12/14 05:26:47;;;;;;;13.50;10.05;;;21.40;60.50;;;;;;5077183;28;20031;-72
2020/12/14 05:29:36;;;;;;;;;;;21.50;60.60;;;;;;5079807;28;20043;-72
2020/12/14 05:32:45;;;;;;;10.63;5.20;;;21.50;60.50;;;;;;5074972;28;19916;-73
2020/12/14 05:35:51;;;;;;;8.15;4.60;;;21.50;60.40;;;;;;5074842;28;20391;-72
2020/12/14 05:39:10;;;;;;;7.90;3.92;;;21.60;60.60;;;;;;5075456;28;20024;-76
2020/12/14 05:42:28;;;;;;;6.32;2.65;;;21.70;60.70;;;;;;5076351;28;20028;-74
2020/12/14 05:45:34;;;;;;;5.93;2.38;;;21.70;60.70;;;;;;5075770;28;20435;-73
2020/12/14 05:48:40;;;;;;;4.90;2.08;;;21.70;60.60;;;;;;5076468;28;20016;-71
2020/12/14 05:51:47;;;;;;;4.68;1.73;;;21.80;60.60;;;;;;5081429;28;20070;-74
2020/12/14 05:54:33;;;;;;;;;;;21.80;60.50;;;;;;5075667;28;20476;-74
2020/12/14 05:57:19;;;;;;;;;;;21.80;60.40;;;;;;5077898;28;19927;-74
2020/12/14 06:00:26;;;;;;;6.70;3.67;;;21.90;60.40;;;;;;5077501;28;19908;-72
2020/12/14 06:03:11;;;;;;;;;;;21.90;60.20;;;;;;5077110;28;20081;-73
2020/12/14 06:06:18;;;;;;;9.90;3.65;;;22.00;60.20;;;;;;5077927;28;20049;-73
2020/12/14 06:08:48;;;;;;;3.97;1.95;;;22.00;60.00;;;;;;5073944;28;20120;-73
2020/12/14 06:11:58;;;;;;;6.43;2.22;;;22.00;60.00;;;;;;5081931;28;20486;-72
2020/12/14 06:15:06;;;;;;;3.83;2.15;;;22.10;60.00;;;;;;5079674;28;20473;-72
2020/12/14 06:18:13;;;;;;;7.70;1.65;;;22.10;59.90;;;;;;5078354;28;20451;-72
2020/12/14 06:21:22;;;;;;;8.50;1.80;;;22.10;59.80;;;;;;5075808;28;20380;-75
2020/12/14 06:24:28;;;;;;;8.35;2.00;;;22.20;59.80;;;;;;5073311;28;20030;-73
2020/12/14 06:27:34;;;;;;;7.57;1.58;;;22.20;59.70;;;;;;5073382;28;20524;-73
2020/12/14 06:30:55;;;;;;;5.97;1.58;;;22.20;59.60;;;;;;5073455;28;20101;-73
2020/12/14 06:34:16;;;;;;;8.82;1.48;;;22.30;59.60;;;;;;5077699;28;20035;-76
2020/12/14 06:37:22;;;;;;;9.40;1.73;;;22.30;59.60;;;;;;5078162;28;20475;-73
2020/12/14 06:40:29;;;;;;;6.65;1.35;;;22.40;59.50;;;;;;5071471;28;20025;-75
2020/12/14 06:43:53;;;;;;;7.30;3.85;;;22.50;59.40;;;;;;5079455;28;20078;-73
2020/12/14 06:47:05;;;;;;;8.18;6.43;;;22.50;59.40;;;;;;5077893;28;20127;-74
2020/12/14 06:50:11;;;;;;;10.75;5.95;;;22.60;59.40;;;;;;5077745;28;20077;-73
2020/12/14 06:53:17;;;;;;;8.52;5.60;;;22.60;59.40;;;;;;5076991;28;20021;-73
2020/12/14 06:56:24;;;;;;;5.72;3.05;;;22.70;59.40;;;;;;5082304;28;20048;-76
2020/12/14 06:58:50;;;;;;;9.98;3.47;;;22.80;59.50;;;;;;5074679;28;20036;-73
2020/12/14 07:01:42;;;;;;;5.03;3.72;;;22.90;59.40;;;;;;5078028;28;20036;-72
2020/12/14 07:04:17;;;;;;;4.60;2.47;;;22.90;59.50;;;;;;5079502;28;20090;-74
2020/12/14 07:07:06;;;;;;;5.78;2.20;;;23.00;59.70;;;;;;5080541;28;20039;-75
2020/12/14 07:10:12;;;;;;;5.03;2.25;;;23.10;59.80;;;;;;5082100;28;20020;-74
2020/12/14 07:13:02;;;;;;;;;;;23.20;59.70;;;;;;5078898;28;20043;-75
2020/12/14 07:16:08;;;;;;;5.30;1.67;;;23.20;59.60;;;;;;5083598;28;19915;-74
2020/12/14 07:19:14;;;;;;;3.95;1.80;;;23.30;59.60;;;;;;5074515;28;20036;-75
2020/12/14 07:22:20;;;;;;;2.88;1.48;;;23.30;59.60;;;;;;5077743;28;20162;-76
2020/12/14 07:24:59;;;;;;;6.65;1.90;;;23.30;59.70;;;;;;5077219;28;20024;-76
2020/12/14 07:28:05;;;;;;;4.95;1.52;;;23.20;59.70;;;;;;5076996;28;20467;-75
2020/12/14 07:30:51;;;;;;;;;;;23.20;59.80;;;;;;5078482;28;20036;-72
2020/12/14 07:33:57;;;;;;;6.38;1.38;;;23.30;59.70;;;;;;5077838;28;19943;-78
2020/12/14 07:37:03;;;;;;;6.57;1.70;;;23.30;59.80;;;;;;5075956;28;20033;-75
2020/12/14 07:40:09;;;;;;;5.32;1.60;;;23.30;59.80;;;;;;5074444;28;20716;-74
2020/12/14 07:42:55;;;;;;;;;;;23.40;59.90;;;;;;5077165;28;20036;-72
2020/12/14 07:46:01;;;;;;;5.38;1.40;;;23.50;60.00;;;;;;5077115;28;19983;-73
2020/12/14 07:49:07;;;;;;;2.75;1.05;;;23.50;59.90;;;;;;5079186;28;20468;-73
2020/12/14 07:51:57;;;;;;;;;;;23.50;59.90;;;;;;5095105;27;20141;-73
2020/12/14 07:55:03;;;;;;;5.85;1.52;;;23.50;60.00;;;;;;5079860;28;19917;-73
2020/12/14 07:58:10;;;;;;;4.82;1.65;;;23.50;59.90;;;;;;5079947;28;20149;-75
2020/12/14 08:01:02;;;;;;;;;;;23.60;60.00;;;;;;5081850;28;20036;-73
2020/12/14 08:04:08;;;;;;;6.45;1.52;;;23.60;60.00;;;;;;5077427;28;19912;-72
2020/12/14 08:06:54;;;;;;;;;;;23.60;60.00;;;;;;5079791;28;20028;-74
2020/12/14 08:10:00;;;;;;;3.85;1.58;;;23.60;60.00;;;;;;5077889;28;19912;-76
2020/12/14 08:12:46;;;;;;;;;;;23.70;59.90;;;;;;5079855;28;20089;-76
2020/12/14 08:15:59;;;;;;;22.33;4.03;;;23.70;60.00;;;;;;5080897;28;19917;-75
2020/12/14 08:19:08;;;;;;;12.43;4.70;;;23.70;59.90;;;;;;5077479;28;20435;-76
2020/12/14 08:22:20;;;;;;;6.72;2.70;;;23.80;59.90;;;;;;5078748;28;20451;-74
2020/12/14 08:25:27;;;;;;;4.13;1.30;;;23.80;59.90;;;;;;5081354;28;20020;-75
2020/12/14 08:28:13;;;;;;;;;;;23.90;59.80;;;;;;5078420;28;20118;-75
2020/12/14 08:31:25;;;;;;;4.78;1.15;;;23.90;59.80;;;;;;5080121;28;20003;-76
2020/12/14 08:34:31;;;;;;;10.18;1.85;;;24.00;59.50;;;;;;5077125;28;20084;-78
2020/12/14 08:37:17;;;;;;;;;;;24.00;59.40;;;;;;5076430;28;20037;-78
2020/12/14 08:40:23;;;;;;;6.55;1.77;;;24.10;59.30;;;;;;5081957;28;20024;-80
2020/12/14 08:43:30;;;;;;;4.32;1.50;;;24.10;59.00;;;;;;5081695;28;20032;-78
2020/12/14 08:46:19;;;;;;;;;;;24.20;59.00;;;;;;5077472;28;20075;-78
2020/12/14 08:48:45;;;;;;;4.05;0.80;;;24.20;58.90;;;;;;5078555;28;19904;-79
2020/12/14 08:51:55;;;;;;;4.03;1.10;;;24.20;58.80;;;;;;5084073;28;20017;-75
2020/12/14 08:55:01;;;;;;;4.85;1.20;;;24.30;58.70;;;;;;5083260;28;20043;-74
2020/12/14 08:58:07;;;;;;;3.05;1.20;;;24.30;58.60;;;;;;5078225;28;20122;-74
2020/12/14 09:01:17;;;;;;;2.58;1.20;;;24.40;58.50;;;;;;5084426;28;20150;-79
2020/12/14 09:04:23;;;;;;;5.35;1.35;;;24.40;58.50;;;;;;5081025;28;20115;-76
2020/12/14 09:07:09;;;;;;;;;;;24.50;58.40;;;;;;5082163;28;20032;-77
2020/12/14 09:10:15;;;;;;;23.27;13.73;;;24.60;58.90;;;;;;5082214;28;19989;-76
2020/12/14 09:13:01;;;;;;;;;;;24.60;58.10;;;;;;5082969;28;20013;-75
2020/12/14 09:16:08;;;;;;;9.32;3.15;;;24.70;58.00;;;;;;5080279;28;19908;-75
2020/12/14 09:18:44;;;;;;;3.88;2.15;;;24.80;57.80;;;;;;5073349;28;20436;-74
2020/12/14 09:21:11;;;;;;;3.33;1.67;;;24.80;57.70;;;;;;5079641;28;20078;-77
2020/12/14 09:23:38;;;;;;;3.40;1.42;;;24.80;57.70;;;;;;5077963;28;20047;-78
2020/12/14 09:26:06;;;;;;;4.38;1.38;;;24.90;57.60;;;;;;5078066;28;20111;-78
2020/12/14 09:28:34;;;;;;;5.70;1.33;;;25.00;57.40;;;;;;5079805;28;20016;-75
2020/12/14 09:31:02;;;;;;;3.78;1.33;;;25.00;57.30;;;;;;5079416;28;20057;-78
2020/12/14 09:33:28;;;;;;;2.03;0.90;;;25.00;57.10;;;;;;5077581;28;20051;-77
2020/12/14 09:35:55;;;;;;;3.28;1.52;;;25.10;57.10;;;;;;5080272;28;20115;-76
2020/12/14 09:38:22;;;;;;;2.72;1.00;;;25.20;57.00;;;;;;5082504;28;20044;-77
2020/12/14 09:40:53;;;;;;;3.40;1.27;;;25.20;56.70;;;;;;5079727;28;20038;-77
2020/12/14 09:43:20;;;;;;;3.50;1.27;;;25.30;56.50;;;;;;5084072;28;20020;-77
2020/12/14 09:45:51;;;;;;;4.53;1.00;;;25.30;56.50;;;;;;5082894;28;20102;-79
2020/12/14 09:48:19;;;;;;;4.55;1.27;;;25.40;57.10;;;;;;5078027;28;20090;-75
2020/12/14 09:50:45;;;;;;;4.15;1.23;;;25.40;56.50;;;;;;5078901;28;20472;-80
2020/12/14 09:53:12;;;;;;;4.05;1.50;;;25.40;56.40;;;;;;5076545;28;20082;-76
2020/12/14 09:55:43;;;;;;;3.78;1.35;;;25.60;56.30;;;;;;5076590;28;20031;-76
2020/12/14 09:58:12;;;;;;;6.03;1.70;;;25.70;56.30;;;;;;5077881;28;20043;-76
2020/12/14 10:00:40;;;;;;;4.07;1.50;;;25.70;56.00;;;;;;5078406;28;20028;-77
2020/12/14 10:03:08;;;;;;;3.63;2.00;;;25.70;55.90;;;;;;5083782;28;20374;-76
2020/12/14 10:05:34;;;;;;;1.70;0.85;;;25.60;55.70;;;;;;5081358;28;20460;-78
2020/12/14 10:08:01;;;;;;;3.92;1.17;;;25.60;56.00;;;;;;5079576;28;20027;-77
2020/12/14 10:10:27;;;;;;;8.88;1.20;;;25.60;56.00;;;;;;5081368;28;20390;-80
2020/12/14 10:12:59;;;;;;;4.10;1.38;;;25.60;56.00;;;;;;5080785;28;20051;-82
2020/12/14 10:15:26;;;;;;;4.07;1.30;;;25.50;56.00;;;;;;5084236;28;20044;-75
2020/12/14 10:17:53;;;;;;;5.65;1.20;;;25.50;56.10;;;;;;5076684;28;20025;-77
2020/12/14 10:20:26;;;;;;;7.57;1.35;;;25.50;56.10;;;;;;5082162;28;20020;-78
2020/12/14 10:22:53;;;;;;;4.45;1.27;;;25.40;56.00;;;;;;5080864;28;20361;-80
2020/12/14 10:25:20;;;;;;;3.67;1.42;;;25.40;56.10;;;;;;5080543;28;20027;-75
2020/12/14 10:27:46;;;;;;;7.55;1.60;;;25.50;56.10;;;;;;5082228;28;20023;-75
2020/12/14 10:30:13;;;;;;;4.53;1.20;;;25.40;55.90;;;;;;5081934;28;20078;-75
2020/12/14 10:32:40;;;;;;;5.80;1.20;;;25.40;56.10;;;;;;5083795;28;20023;-74
2020/12/14 10:35:06;;;;;;;7.15;1.60;;;25.50;56.10;;;;;;5078839;28;20044;-76
2020/12/14 10:37:33;;;;;;;4.63;1.42;;;25.50;56.00;;;;;;5080270;28;20454;-73
2020/12/14 10:40:04;;;;;;;4.90;2.67;;;25.60;55.90;;;;;;5082102;28;20048;-76
2020/12/14 10:42:32;;;;;;;6.75;2.22;;;25.60;55.90;;;;;;5080124;28;20032;-74
2020/12/14 10:45:00;;;;;;;7.18;2.33;;;25.70;55.70;;;;;;5084162;28;20535;-74
2020/12/14 10:47:27;;;;;;;3.88;1.80;;;25.80;55.60;;;;;;5084812;28;20020;-74
2020/12/14 10:49:54;;;;;;;6.28;1.20;;;25.90;55.60;;;;;;5081287;28;20181;-74
2020/12/14 10:52:21;;;;;;;3.17;1.40;;;25.90;55.60;;;;;;5082213;28;20035;-73
2020/12/14 10:54:50;;;;;;;6.10;1.58;;;25.90;55.50;;;;;;5080748;28;20020;-73
2020/12/14 10:57:17;;;;;;;10.75;1.35;;;26.00;55.50;;;;;;5083215;28;20070;-74
2020/12/14 10:59:45;;;;;;;5.72;1.10;;;26.00;55.30;;;;;;5078258;28;20028;-74
2020/12/14 11:02:12;;;;;;;6.45;1.20;;;26.10;55.20;;;;;;5084695;28;20032;-72
2020/12/14 11:04:38;;;;;;;5.25;1.10;;;26.10;55.10;;;;;;5082206;28;20035;-75
2020/12/14 11:07:08;;;;;;;3.17;0.90;;;26.10;55.00;;;;;;5084718;28;20156;-74
2020/12/14 11:09:37;;;;;;;4.50;1.85;;;26.10;54.90;;;;;;5079912;28;20544;-73
2020/12/14 11:12:07;;;;;;;4.47;1.63;;;26.10;54.90;;;;;;5079589;28;20009;-74
2020/12/14 11:14:35;;;;;;;8.63;2.25;;;26.10;54.80;;;;;;5084853;28;20027;-77
2020/12/14 11:17:03;;;;;;;7.13;2.80;;;26.10;54.80;;;;;;5080009;28;20021;-76
2020/12/14 11:19:29;;;;;;;4.82;2.55;;;26.10;54.90;;;;;;5085811;28;20542;-76
2020/12/14 11:21:57;;;;;;;7.70;5.30;;;26.00;55.00;;;;;;5078832;28;20029;-76
2020/12/14 11:24:24;;;;;;;10.45;2.75;;;26.00;55.30;;;;;;5085431;28;20028;-76
2020/12/14 11:27:11;;;;;;;7.63;2.15;;;25.90;55.50;;;;;;5083425;28;20024;-77
2020/12/14 11:30:17;;;;;;;6.80;1.73;;;25.90;55.80;;;;;;5083168;28;20027;-78
2020/12/14 11:33:23;;;;;;;6.22;1.23;;;25.80;56.10;;;;;;5044792;28;20108;-78
2020/12/14 11:36:31;;;;;;;9.23;2.00;;;25.80;56.30;;;;;;5040697;28;20051;-77
2020/12/14 11:39:37;;;;;;;6.10;1.50;;;25.80;56.50;;;;;;5043126;28;20028;-78
2020/12/14 11:42:43;;;;;;;6.47;1.35;;;25.70;56.60;;;;;;5044076;28;20116;-78
2020/12/14 11:45:49;;;;;;;7.65;1.60;;;25.70;56.80;;;;;;5042970;28;20032;-78
2020/12/14 11:48:35;;;;;;;;;;;25.60;56.90;;;;;;5041580;28;20032;-77
2020/12/14 11:51:02;;;;;;;4.45;1.67;;;25.60;57.10;;;;;;5040058;28;19909;-77
2020/12/14 11:53:29;;;;;;;8.68;1.60;;;25.50;57.20;;;;;;5039454;28;20037;-77
2020/12/14 11:55:55;;;;;;;9.48;2.65;;;25.50;57.30;;;;;;5038754;28;20036;-76
2020/12/14 11:58:22;;;;;;;6.53;1.73;;;25.40;57.30;;;;;;5044443;28;20078;-78
2020/12/14 12:01:28;;;;;;;7.28;1.42;;;25.40;57.30;;;;;;5039258;28;20064;-77
2020/12/14 12:04:14;;;;;;;;;;;25.40;57.20;;;;;;5039083;28;20025;-76
2020/12/14 12:06:40;;;;;;;6.40;3.13;;;25.30;57.20;;;;;;5040899;28;19908;-76
2020/12/14 12:09:07;;;;;;;7.68;1.80;;;25.30;57.30;;;;;;5037012;28;20041;-76
2020/12/14 12:11:34;;;;;;;7.35;1.73;;;25.30;57.30;;;;;;5039964;28;20023;-76
2020/12/14 12:14:01;;;;;;;9.48;1.65;;;25.20;57.30;;;;;;5042851;28;20025;-75
2020/12/14 12:16:27;;;;;;;17.38;5.85;;;25.20;57.40;;;;;;5039744;28;20107;-76
2020/12/14 12:18:54;;;;;;;14.63;5.05;;;25.20;57.50;;;;;;5042105;28;20028;-76
2020/12/14 12:21:21;;;;;;;13.35;4.97;;;25.20;57.70;;;;;;5040209;28;20404;-75
2020/12/14 12:23:48;;;;;;;5.85;2.85;;;25.10;57.70;;;;;;5039791;28;20025;-76
2020/12/14 12:26:15;;;;;;;5.75;2.33;;;25.10;57.80;;;;;;5037561;28;20040;-76
2020/12/14 12:28:42;;;;;;;6.68;1.90;;;25.10;57.90;;;;;;5043054;28;20021;-77
2020/12/14 12:31:09;;;;;;;5.80;2.08;;;25.10;57.90;;;;;;5070387;28;20045;-76
2020/12/14 12:33:36;;;;;;;6.18;2.65;;;25.10;58.10;;;;;;5087983;28;20023;-76
2020/12/14 12:36:03;;;;;;;9.10;2.50;;;25.10;58.10;;;;;;5084962;28;20048;-75
2020/12/14 12:38:30;;;;;;;7.43;2.03;;;25.10;58.10;;;;;;5085615;28;20026;-76
2020/12/14 12:40:57;;;;;;;7.72;2.35;;;25.20;58.20;;;;;;5084853;28;20047;-76
2020/12/14 12:43:24;;;;;;;9.35;2.63;;;25.20;58.30;;;;;;5083560;28;20055;-77
2020/12/14 12:45:50;;;;;;;6.28;2.10;;;25.20;58.30;;;;;;5085568;28;20509;-77
2020/12/14 12:48:17;;;;;;;8.55;2.03;;;25.20;58.40;;;;;;5084462;28;20074;-79
2020/12/14 12:50:53;;;;;;;7.68;2.50;;;25.10;58.40;;;;;;5077748;28;20024;-77
2020/12/14 12:53:24;;;;;;;7.60;2.25;;;25.10;58.60;;;;;;5078648;28;20139;-77
2020/12/14 12:55:52;;;;;;;5.78;2.13;;;25.10;58.80;;;;;;5084765;28;20024;-77
2020/12/14 12:58:19;;;;;;;9.75;2.38;;;25.00;59.20;;;;;;5083431;28;20512;-76
2020/12/14 13:00:46;;;;;;;8.30;2.83;;;25.00;59.40;;;;;;5084157;28;20104;-76
2020/12/14 13:03:13;;;;;;;7.70;2.45;;;25.00;59.60;;;;;;5087279;28;20107;-75
2020/12/14 13:05:41;;;;;;;4.43;1.73;;;25.00;59.60;;;;;;5082552;28;20378;-75
2020/12/14 13:08:13;;;;;;;8.25;1.67;;;25.00;59.50;;;;;;5082925;28;20028;-73
2020/12/14 13:10:45;;;;;;;9.88;2.45;;;25.00;59.40;;;;;;5085032;28;20030;-76
2020/12/14 13:13:11;;;;;;;5.35;1.90;;;24.90;59.30;;;;;;5083244;28;20482;-74
2020/12/14 13:15:45;;;;;;;6.15;2.38;;;24.90;59.30;;;;;;5083419;28;20099;-77
2020/12/14 13:18:12;;;;;;;8.48;2.10;;;25.00;59.40;;;;;;5081099;28;20483;-74
2020/12/14 13:20:38;;;;;;;9.45;2.78;;;24.90;60.00;;;;;;5088839;28;20057;-79
2020/12/14 13:23:05;;;;;;;6.50;2.20;;;25.00;59.30;;;;;;5085734;28;20020;-79
2020/12/14 13:25:32;;;;;;;9.95;3.25;;;24.90;59.30;;;;;;5088887;28;20020;-79
2020/12/14 13:27:59;;;;;;;8.18;5.25;;;25.00;59.40;;;;;;5087279;28;20028;-82
2020/12/14 13:30:25;;;;;;;7.68;5.07;;;25.00;59.40;;;;;;5084514;28;20040;-78
2020/12/14 13:32:52;;;;;;;6.72;2.60;;;25.10;59.50;;;;;;5087292;28;20024;-80
2020/12/14 13:35:18;;;;;;;2.97;2.20;;;25.20;59.70;;;;;;5086865;28;20513;-79
2020/12/14 13:37:47;;;;;;;5.18;2.40;;;25.30;59.80;;;;;;5081454;28;20025;-79
2020/12/14 13:40:14;;;;;;;4.40;1.98;;;25.20;59.80;;;;;;5079869;28;20067;-78
2020/12/14 13:42:40;;;;;;;3.97;2.03;;;25.30;59.80;;;;;;5088785;28;20052;-76
2020/12/14 13:45:07;;;;;;;5.45;2.03;;;25.30;59.70;;;;;;5083175;28;20538;-76
2020/12/14 13:47:34;;;;;;;5.57;2.78;;;25.40;59.60;;;;;;5084502;28;20023;-76
2020/12/14 13:50:55;;;;;;;2.55;1.70;;;25.40;59.40;;;;;;5084314;28;20052;-76
2020/12/14 13:53:22;;;;;;;4.18;2.28;;;25.50;59.40;;;;;;5080181;28;20625;-76
2020/12/14 13:55:48;;;;;;;2.35;1.60;;;25.50;59.30;;;;;;5086033;28;20023;-76
2020/12/14 13:58:49;;;;;;;7.30;2.15;;;25.60;59.30;;;;;;5083669;28;20382;-77
2020/12/14 14:01:15;;;;;;;2.80;1.27;;;25.60;59.10;;;;;;5084311;28;20028;-76
2020/12/14 14:03:42;;;;;;;2.78;1.30;;;25.60;59.00;;;;;;5083081;28;20021;-76
2020/12/14 14:09:31;;;;;;;5.72;1.30;;;25.60;58.90;;;;;;5080494;28;20035;-77
2020/12/14 14:12:50;;;;;;;3.88;2.20;;;25.60;58.90;;;;;;5082144;28;20030;-77
2020/12/14 14:15:17;;;;;;;1.70;1.10;;;25.60;58.40;;;;;;5085932;28;20584;-77
2020/12/14 14:17:43;;;;;;;3.90;1.27;;;25.60;59.00;;;;;;5083066;28;20023;-77
2020/12/14 14:20:10;;;;;;;3.55;1.30;;;25.50;58.60;;;;;;5084183;28;20032;-78
2020/12/14 14:22:36;;;;;;;6.32;1.58;;;25.50;57.70;;;;;;5083934;28;20475;-77
2020/12/14 14:25:04;;;;;;;3.15;1.38;;;25.50;57.20;;;;;;5087362;28;20531;-77
2020/12/14 14:27:31;;;;;;;6.47;2.03;;;25.40;57.00;;;;;;5085551;28;20628;-77